Time;durP1;ratioP1;P1;durP2;ratioP2;P2;SDS_P1;SDS_P2;PMS_P1;PMS_P2;Temp;Humidity;BMP_temperature;BMP_pressure;BME280_temperature;BME280_humidity;BME280_pressure;Samples;Min_cycle;Max_cycle;Signal;HPM_P1;HPM_P2
2022/07/16 00:02:19;;;;;;;3.70;1.07;;;25.80;40.00;;;;;;5012456;28;20429;-47
2022/07/16 00:04:47;;;;;;;1.53;1.10;;;25.80;39.90;;;;;;5007715;28;20465;-48
2022/07/16 00:07:19;;;;;;;0.93;0.80;;;25.70;40.00;;;;;;5011159;28;20612;-48
2022/07/16 00:09:47;;;;;;;1.00;0.87;;;25.70;39.90;;;;;;5006204;28;20480;-47
2022/07/16 00:12:15;;;;;;;1.03;0.90;;;25.70;39.90;;;;;;5012223;28;20429;-47
2022/07/16 00:14:43;;;;;;;1.00;0.90;;;25.70;39.90;;;;;;5011460;28;20465;-48
2022/07/16 00:17:30;;;;;;;1.10;1.00;;;25.70;39.90;;;;;;5005415;28;20460;-47
2022/07/16 00:20:16;;;;;;;1.60;0.90;;;25.70;39.90;;;;;;5004718;28;20479;-48
2022/07/16 00:23:04;;;;;;;1.33;1.23;;;25.80;39.90;;;;;;5011842;28;20456;-47
2022/07/16 00:25:33;;;;;;;1.10;1.00;;;25.70;39.90;;;;;;4989778;28;20498;-47
2022/07/16 00:28:01;;;;;;;1.70;0.90;;;25.70;39.90;;;;;;4991446;28;20452;-47
2022/07/16 00:30:29;;;;;;;1.03;0.97;;;25.70;39.90;;;;;;5007437;28;20465;-47
2022/07/16 00:32:57;;;;;;;1.27;1.10;;;25.70;39.90;;;;;;5109228;22;20498;-49
2022/07/16 00:35:26;;;;;;;1.10;0.90;;;25.70;39.90;;;;;;5070526;28;20509;-48
2022/07/16 00:37:54;;;;;;;1.20;1.10;;;25.70;39.90;;;;;;5044382;28;20797;-50
2022/07/16 00:40:24;;;;;;;1.50;0.97;;;25.70;39.90;;;;;;5040682;28;20473;-49
2022/07/16 00:42:52;;;;;;;0.93;0.83;;;25.70;39.90;;;;;;5051145;28;20467;-48
2022/07/16 00:45:20;;;;;;;1.40;1.30;;;25.70;39.90;;;;;;5039122;28;20470;-46
2022/07/16 00:47:48;;;;;;;3.93;1.23;;;25.70;39.90;;;;;;5030941;28;20714;-46
2022/07/16 00:50:16;;;;;;;1.00;1.00;;;25.70;39.90;;;;;;5048224;28;20475;-48
2022/07/16 00:52:44;;;;;;;0.90;0.80;;;25.70;40.00;;;;;;5037322;28;20788;-48
2022/07/16 00:55:12;;;;;;;1.57;0.80;;;25.70;39.90;;;;;;5034900;28;20558;-50
2022/07/16 00:57:42;;;;;;;1.30;1.17;;;25.70;39.90;;;;;;5050590;28;20431;-49
2022/07/16 01:00:11;;;;;;;1.00;0.90;;;25.70;40.10;;;;;;5049315;28;20521;-48
2022/07/16 01:02:39;;;;;;;1.40;1.30;;;25.70;40.10;;;;;;5031318;28;20428;-49
2022/07/16 01:05:08;;;;;;;1.27;0.90;;;25.70;40.20;;;;;;5042423;28;20536;-46
2022/07/16 01:07:38;;;;;;;1.17;1.00;;;25.70;40.20;;;;;;5034966;28;20500;-48
2022/07/16 01:10:07;;;;;;;1.00;0.70;;;25.70;40.40;;;;;;5041103;28;20501;-46
2022/07/16 01:12:36;;;;;;;0.90;0.80;;;25.70;40.30;;;;;;5042578;28;20435;-46
2022/07/16 01:15:07;;;;;;;1.60;0.97;;;25.70;40.30;;;;;;5049579;28;20463;-47
2022/07/16 01:17:35;;;;;;;1.20;1.10;;;25.70;40.40;;;;;;5028869;28;20906;-48
2022/07/16 01:20:04;;;;;;;1.07;0.90;;;25.70;40.30;;;;;;5046330;28;20556;-46
2022/07/16 01:22:32;;;;;;;1.10;1.00;;;25.70;40.50;;;;;;5050871;28;20430;-46
2022/07/16 01:25:02;;;;;;;1.63;1.00;;;25.60;40.40;;;;;;5044481;28;20930;-46
2022/07/16 01:27:30;;;;;;;1.00;0.90;;;25.60;40.40;;;;;;5038388;28;20472;-48
2022/07/16 01:29:58;;;;;;;1.43;1.03;;;25.60;40.50;;;;;;5045595;28;20565;-49
2022/07/16 01:32:26;;;;;;;1.20;1.03;;;25.60;40.60;;;;;;5041689;28;20985;-49
2022/07/16 01:34:54;;;;;;;0.90;0.90;;;25.60;40.60;;;;;;5036915;28;20467;-48
2022/07/16 01:37:22;;;;;;;1.80;1.07;;;25.60;40.60;;;;;;5039100;28;20971;-48
2022/07/16 01:39:50;;;;;;;1.13;1.03;;;25.60;40.60;;;;;;5042657;28;20463;-48
2022/07/16 01:42:20;;;;;;;0.70;0.67;;;25.60;40.80;;;;;;5042159;28;20443;-48
2022/07/16 01:44:48;;;;;;;0.93;0.93;;;25.60;40.80;;;;;;5040832;28;20455;-48
2022/07/16 01:47:16;;;;;;;1.23;1.13;;;25.60;40.80;;;;;;5040215;28;20991;-49
2022/07/16 01:49:45;;;;;;;0.80;0.80;;;25.60;40.80;;;;;;5043048;28;20467;-48
2022/07/16 01:52:15;;;;;;;1.00;0.90;;;25.60;40.80;;;;;;5050328;28;20427;-50
2022/07/16 01:54:45;;;;;;;1.20;0.80;;;25.60;40.90;;;;;;5043065;28;20863;-50
2022/07/16 01:57:13;;;;;;;1.43;1.00;;;25.60;41.00;;;;;;5031524;28;20812;-48
2022/07/16 01:59:44;;;;;;;1.20;0.83;;;25.60;40.90;;;;;;5042298;28;20469;-50
2022/07/16 02:02:13;;;;;;;0.97;0.97;;;25.60;41.00;;;;;;5050138;28;20914;-49
2022/07/16 02:04:42;;;;;;;0.80;0.80;;;25.50;41.00;;;;;;5042278;28;20466;-49
2022/07/16 02:07:11;;;;;;;1.20;1.10;;;25.50;41.10;;;;;;5041075;28;20511;-48
2022/07/16 02:09:39;;;;;;;1.43;0.90;;;25.50;41.00;;;;;;5026447;28;20601;-48
2022/07/16 02:12:07;;;;;;;1.03;0.93;;;25.50;41.10;;;;;;5049613;28;20840;-48
2022/07/16 02:14:35;;;;;;;1.00;0.90;;;25.50;41.20;;;;;;5034903;28;20524;-48
2022/07/16 02:17:04;;;;;;;0.90;0.80;;;25.50;41.10;;;;;;5049164;28;20475;-49
2022/07/16 02:19:33;;;;;;;1.00;0.80;;;25.50;41.10;;;;;;5048336;28;20978;-49
2022/07/16 02:22:01;;;;;;;1.17;1.07;;;25.50;41.20;;;;;;5033995;28;20497;-48
2022/07/16 02:24:29;;;;;;;1.57;0.90;;;25.50;41.20;;;;;;5030384;28;20459;-51
2022/07/16 02:26:57;;;;;;;0.80;0.80;;;25.50;41.20;;;;;;5039819;28;20721;-48
2022/07/16 02:29:26;;;;;;;0.80;0.80;;;25.50;41.30;;;;;;5048689;28;20453;-50
2022/07/16 02:31:54;;;;;;;1.47;1.10;;;25.40;41.10;;;;;;5047894;28;20446;-50
2022/07/16 02:34:23;;;;;;;1.20;1.10;;;25.50;41.30;;;;;;5047730;28;20471;-50
2022/07/16 02:36:51;;;;;;;1.50;1.20;;;25.50;41.40;;;;;;5042463;28;20456;-48
2022/07/16 02:39:19;;;;;;;1.00;0.90;;;25.40;41.30;;;;;;5040465;28;20821;-48
2022/07/16 02:41:48;;;;;;;2.33;1.10;;;25.40;41.30;;;;;;5030020;28;20432;-48
2022/07/16 02:44:16;;;;;;;1.20;1.10;;;25.40;41.30;;;;;;5047025;28;20454;-48
2022/07/16 02:46:44;;;;;;;2.40;1.10;;;25.40;42.60;;;;;;5035632;28;20889;-50
2022/07/16 02:49:12;;;;;;;1.03;0.93;;;25.40;41.50;;;;;;5031395;28;20525;-50
2022/07/16 02:51:42;;;;;;;1.00;0.90;;;25.40;41.60;;;;;;5049735;28;20447;-50
2022/07/16 02:54:10;;;;;;;1.30;1.20;;;25.40;41.60;;;;;;5045514;28;20827;-49
2022/07/16 02:56:38;;;;;;;1.10;0.90;;;25.40;41.70;;;;;;5048878;28;20455;-49
2022/07/16 02:59:06;;;;;;;1.00;0.90;;;25.40;41.60;;;;;;5048483;28;20450;-51
2022/07/16 03:01:34;;;;;;;0.70;0.70;;;25.40;41.70;;;;;;5042378;28;20477;-49
2022/07/16 03:04:03;;;;;;;1.30;0.97;;;25.40;41.60;;;;;;5036384;28;20463;-49
2022/07/16 03:06:31;;;;;;;3.00;0.97;;;25.40;41.60;;;;;;5037029;28;20798;-49
2022/07/16 03:09:01;;;;;;;1.23;1.13;;;25.40;41.60;;;;;;5030969;28;20513;-49
2022/07/16 03:11:29;;;;;;;1.00;0.90;;;25.40;41.60;;;;;;5049019;28;20467;-49
2022/07/16 03:13:57;;;;;;;1.10;1.07;;;25.40;41.60;;;;;;5050072;28;20863;-49
2022/07/16 03:16:25;;;;;;;1.23;1.00;;;25.40;41.60;;;;;;5053214;28;20453;-49
2022/07/16 03:18:53;;;;;;;0.90;0.90;;;25.40;41.60;;;;;;5047043;28;20964;-48
2022/07/16 03:21:21;;;;;;;1.00;0.90;;;25.40;41.80;;;;;;5050702;28;20435;-49
2022/07/16 03:23:49;;;;;;;1.50;1.00;;;25.30;41.60;;;;;;5041451;28;20443;-49
2022/07/16 03:26:19;;;;;;;1.10;1.00;;;25.30;41.60;;;;;;5049269;28;20462;-48
2022/07/16 03:28:47;;;;;;;0.80;0.80;;;25.30;41.60;;;;;;5037739;28;20476;-46
2022/07/16 03:31:17;;;;;;;1.17;1.07;;;25.30;41.60;;;;;;5034497;28;20437;-46
2022/07/16 03:33:45;;;;;;;1.30;0.83;;;25.30;41.60;;;;;;5048252;28;20478;-51
2022/07/16 03:36:13;;;;;;;1.20;0.90;;;25.30;41.70;;;;;;5052497;28;20526;-48
2022/07/16 03:39:01;;;;;;;1.07;0.97;;;25.30;41.70;;;;;;5049881;28;20526;-49
2022/07/16 03:41:31;;;;;;;1.17;1.07;;;25.30;41.80;;;;;;5044080;28;20420;-49
2022/07/16 03:44:00;;;;;;;1.70;1.00;;;25.30;41.80;;;;;;5051104;28;20549;-49
2022/07/16 03:46:28;;;;;;;0.80;0.80;;;25.30;41.90;;;;;;5035866;28;20953;-49
2022/07/16 03:48:57;;;;;;;1.10;0.97;;;25.30;41.80;;;;;;5046706;28;20504;-46
2022/07/16 03:51:25;;;;;;;0.90;0.90;;;25.30;41.80;;;;;;5033145;28;20425;-48
2022/07/16 03:53:53;;;;;;;1.13;1.03;;;25.30;41.80;;;;;;5038879;28;20988;-46
2022/07/16 03:56:22;;;;;;;1.10;0.87;;;25.30;41.90;;;;;;5050450;28;20528;-46
2022/07/16 03:58:52;;;;;;;1.13;1.03;;;25.20;42.00;;;;;;5050749;28;20469;-46
2022/07/16 04:01:21;;;;;;;1.00;0.90;;;25.20;41.90;;;;;;5051390;28;20431;-46
2022/07/16 04:03:49;;;;;;;0.93;0.93;;;25.20;41.90;;;;;;5046480;28;20539;-48
2022/07/16 04:06:18;;;;;;;1.20;0.90;;;25.20;41.90;;;;;;5032628;28;20459;-49
2022/07/16 04:08:46;;;;;;;1.50;1.40;;;25.20;41.90;;;;;;5038704;28;20455;-49
2022/07/16 04:11:14;;;;;;;1.30;1.00;;;25.20;42.00;;;;;;5049550;28;20419;-49
2022/07/16 04:13:42;;;;;;;1.17;1.07;;;25.20;42.00;;;;;;5037883;28;20440;-49
2022/07/16 04:16:12;;;;;;;1.33;1.10;;;25.20;42.00;;;;;;5040466;28;20974;-48
2022/07/16 04:18:40;;;;;;;1.10;1.00;;;25.20;42.10;;;;;;5038972;28;20526;-48
2022/07/16 04:21:09;;;;;;;1.03;0.93;;;25.20;42.00;;;;;;5032208;28;20436;-49
2022/07/16 04:23:37;;;;;;;1.30;1.20;;;25.20;42.10;;;;;;5038850;28;20836;-46
2022/07/16 04:26:05;;;;;;;1.33;0.90;;;25.20;42.10;;;;;;5047610;28;20527;-48
2022/07/16 04:28:33;;;;;;;1.33;1.03;;;25.20;42.10;;;;;;5045987;28;20869;-49
2022/07/16 04:31:02;;;;;;;2.00;0.90;;;25.10;42.10;;;;;;5047903;28;20463;-49
2022/07/16 04:33:31;;;;;;;1.20;1.03;;;25.10;42.10;;;;;;5042770;28;20490;-48
2022/07/16 04:36:02;;;;;;;1.20;1.00;;;25.10;42.10;;;;;;5033411;28;20822;-50
2022/07/16 04:38:30;;;;;;;1.00;0.90;;;25.10;42.10;;;;;;5050616;28;20570;-49
2022/07/16 04:40:59;;;;;;;1.20;1.10;;;25.10;42.20;;;;;;5044285;28;20509;-48
2022/07/16 04:43:28;;;;;;;1.67;1.57;;;25.10;42.10;;;;;;5048036;28;20813;-48
2022/07/16 04:45:56;;;;;;;2.10;1.10;;;25.10;41.80;;;;;;5042880;28;20500;-50
2022/07/16 04:48:24;;;;;;;1.50;1.20;;;25.00;41.70;;;;;;5045629;28;20565;-49
2022/07/16 04:50:54;;;;;;;1.70;1.47;;;25.00;41.40;;;;;;5049598;28;20494;-48
2022/07/16 04:53:23;;;;;;;2.73;1.60;;;25.00;41.30;;;;;;5048596;28;20966;-48
2022/07/16 04:55:51;;;;;;;1.40;1.17;;;24.90;41.00;;;;;;5048178;28;20495;-48
2022/07/16 04:58:19;;;;;;;3.40;1.73;;;24.90;40.70;;;;;;5040488;28;20451;-48
2022/07/16 05:00:47;;;;;;;2.03;1.17;;;24.90;40.50;;;;;;5046021;28;20505;-48
2022/07/16 05:03:15;;;;;;;1.70;1.30;;;24.90;40.40;;;;;;5048629;28;20446;-48
2022/07/16 05:05:47;;;;;;;2.30;1.67;;;24.90;40.40;;;;;;5050342;28;21067;-48
2022/07/16 05:08:17;;;;;;;1.83;1.50;;;24.90;40.20;;;;;;5050417;28;20550;-47
2022/07/16 05:10:46;;;;;;;1.90;1.40;;;24.90;40.00;;;;;;5044831;28;20467;-47
2022/07/16 05:13:14;;;;;;;3.37;1.50;;;24.80;39.80;;;;;;5050659;28;20455;-48
2022/07/16 05:15:42;;;;;;;1.90;1.60;;;24.80;39.40;;;;;;5050252;28;20993;-50
2022/07/16 05:18:11;;;;;;;2.93;1.63;;;24.80;39.50;;;;;;5046027;28;20435;-49
2022/07/16 05:20:39;;;;;;;1.73;1.30;;;24.80;39.30;;;;;;5041158;28;20481;-49
2022/07/16 05:23:07;;;;;;;1.53;1.40;;;24.70;39.10;;;;;;5032478;28;20442;-48
2022/07/16 05:25:37;;;;;;;1.83;1.20;;;24.70;40.40;;;;;;5045240;28;20459;-48
2022/07/16 05:28:05;;;;;;;2.20;1.30;;;24.70;39.10;;;;;;5048716;28;20439;-48
2022/07/16 05:30:33;;;;;;;1.20;1.10;;;24.70;39.10;;;;;;5048643;28;20986;-48
2022/07/16 05:33:01;;;;;;;2.43;1.70;;;24.70;39.10;;;;;;5048860;28;20545;-47
2022/07/16 05:35:30;;;;;;;1.90;1.63;;;24.60;39.10;;;;;;5048280;28;20586;-48
2022/07/16 05:37:58;;;;;;;2.33;1.27;;;24.60;39.10;;;;;;5044744;28;20448;-50
2022/07/16 05:40:27;;;;;;;1.93;1.50;;;24.60;39.10;;;;;;5028047;28;20479;-50
2022/07/16 05:42:56;;;;;;;1.90;1.17;;;24.60;39.10;;;;;;5049931;28;20438;-48
2022/07/16 05:45:24;;;;;;;2.00;1.20;;;24.60;39.10;;;;;;5049631;28;20545;-48
2022/07/16 05:47:52;;;;;;;2.43;1.50;;;24.50;39.00;;;;;;5044892;28;20555;-48
2022/07/16 05:50:21;;;;;;;4.10;1.57;;;24.50;39.00;;;;;;5048707;28;20831;-50
2022/07/16 05:52:49;;;;;;;1.47;1.37;;;24.50;39.00;;;;;;5050415;28;20427;-49
2022/07/16 05:55:17;;;;;;;1.97;1.60;;;24.50;39.00;;;;;;5045526;28;20562;-50
2022/07/16 05:57:45;;;;;;;2.67;1.70;;;24.50;39.00;;;;;;5049633;28;20447;-48
2022/07/16 06:00:15;;;;;;;2.20;1.47;;;24.50;39.00;;;;;;5049293;28;20803;-48
2022/07/16 06:02:43;;;;;;;2.37;1.53;;;24.50;39.00;;;;;;5036037;28;20452;-49
2022/07/16 06:05:13;;;;;;;1.77;1.60;;;24.50;39.00;;;;;;5030485;28;20481;-50
2022/07/16 06:07:41;;;;;;;2.07;1.60;;;24.50;39.00;;;;;;5049119;28;20466;-48
2022/07/16 06:10:10;;;;;;;2.33;1.60;;;24.50;39.00;;;;;;5046265;28;20477;-49
2022/07/16 06:12:38;;;;;;;1.43;1.33;;;24.40;38.90;;;;;;5049684;28;20489;-48
2022/07/16 06:15:10;;;;;;;2.00;1.63;;;24.50;39.00;;;;;;5040124;28;20520;-48
2022/07/16 06:17:39;;;;;;;1.60;1.40;;;24.50;39.00;;;;;;5048226;28;20470;-48
2022/07/16 06:20:09;;;;;;;1.33;1.23;;;24.40;38.90;;;;;;5040656;28;20979;-49
2022/07/16 06:22:38;;;;;;;2.30;1.23;;;24.40;38.90;;;;;;5034941;28;20419;-48
2022/07/16 06:25:12;;;;;;;1.97;1.30;;;24.40;38.90;;;;;;5035146;28;20467;-49
2022/07/16 06:27:43;;;;;;;2.30;1.30;;;24.40;38.90;;;;;;5029815;28;20452;-48
2022/07/16 06:30:12;;;;;;;1.97;1.27;;;24.40;38.90;;;;;;5046926;28;20463;-48
2022/07/16 06:32:43;;;;;;;2.40;1.60;;;24.40;38.90;;;;;;5047641;28;20466;-48
2022/07/16 06:35:12;;;;;;;1.77;1.60;;;24.40;38.90;;;;;;5076127;22;20485;-50
2022/07/16 06:37:41;;;;;;;3.47;1.87;;;24.30;38.80;;;;;;5085497;28;20454;-47
2022/07/16 06:40:10;;;;;;;2.00;1.47;;;24.30;38.80;;;;;;5072814;28;20466;-47
2022/07/16 06:42:38;;;;;;;2.93;1.90;;;24.30;38.80;;;;;;5089884;28;20483;-49
2022/07/16 06:45:09;;;;;;;1.87;1.67;;;24.30;38.80;;;;;;5094286;28;20453;-48
2022/07/16 06:47:38;;;;;;;3.27;1.90;;;24.30;38.80;;;;;;5092868;28;20457;-49
2022/07/16 06:50:09;;;;;;;3.07;1.67;;;24.30;38.80;;;;;;5082550;28;20500;-48
2022/07/16 06:52:37;;;;;;;3.40;1.83;;;24.30;38.80;;;;;;5088742;28;20842;-47
2022/07/16 06:55:06;;;;;;;2.77;1.63;;;24.30;38.90;;;;;;5083186;28;20457;-47
2022/07/16 06:57:36;;;;;;;2.50;2.27;;;24.20;39.40;;;;;;5085216;28;20453;-48
2022/07/16 07:00:05;;;;;;;3.60;2.10;;;24.30;39.50;;;;;;5091112;28;20526;-51
2022/07/16 07:02:34;;;;;;;3.37;2.53;;;24.30;39.80;;;;;;5091910;28;20512;-49
2022/07/16 07:05:03;;;;;;;3.57;2.07;;;24.20;39.70;;;;;;5088523;28;20465;-48
2022/07/16 07:07:33;;;;;;;6.03;2.37;;;24.20;39.90;;;;;;5083559;28;21058;-48
2022/07/16 07:10:01;;;;;;;2.90;2.37;;;24.20;40.10;;;;;;5084752;28;20493;-51
2022/07/16 07:12:30;;;;;;;3.50;1.80;;;24.20;40.50;;;;;;5084078;28;20436;-50
2022/07/16 07:14:58;;;;;;;2.83;2.03;;;24.10;40.60;;;;;;5084961;28;20496;-49
2022/07/16 07:17:26;;;;;;;3.53;1.80;;;24.10;40.70;;;;;;5090193;28;20495;-48
2022/07/16 07:19:54;;;;;;;4.00;2.07;;;24.20;40.80;;;;;;5091233;28;20468;-49
2022/07/16 07:22:22;;;;;;;2.63;1.87;;;24.20;40.90;;;;;;5091244;28;21005;-46
2022/07/16 07:24:52;;;;;;;3.43;1.90;;;24.20;41.00;;;;;;5083108;28;20496;-49
2022/07/16 07:27:20;;;;;;;4.13;2.37;;;24.20;41.00;;;;;;5091250;28;20475;-53
2022/07/16 07:29:49;;;;;;;3.90;2.23;;;24.20;41.00;;;;;;5082281;28;20469;-50
2022/07/16 07:32:17;;;;;;;3.53;1.70;;;24.20;41.10;;;;;;5092440;28;20443;-48
2022/07/16 07:34:45;;;;;;;8.40;2.07;;;24.20;41.30;;;;;;5090745;28;20485;-48
2022/07/16 07:37:14;;;;;;;2.77;1.87;;;24.20;41.30;;;;;;5082351;28;20535;-48
2022/07/16 07:39:42;;;;;;;2.93;2.10;;;24.20;41.30;;;;;;5074571;28;20546;-50
2022/07/16 07:42:12;;;;;;;3.00;2.10;;;24.20;41.50;;;;;;5082873;28;20911;-55
2022/07/16 07:44:41;;;;;;;5.03;2.37;;;24.20;41.50;;;;;;5087991;28;20476;-48
2022/07/16 07:47:09;;;;;;;2.70;2.20;;;24.30;41.60;;;;;;5080421;28;20507;-49
2022/07/16 07:49:39;;;;;;;3.23;1.83;;;24.20;41.60;;;;;;5087480;28;20465;-49
2022/07/16 07:52:12;;;;;;;2.90;2.20;;;24.30;41.80;;;;;;5086974;28;20449;-48
2022/07/16 07:54:41;;;;;;;3.03;2.03;;;24.30;41.80;;;;;;5085306;28;20465;-54
2022/07/16 07:57:09;;;;;;;4.07;2.47;;;24.30;42.00;;;;;;5085461;28;20465;-48
2022/07/16 07:59:38;;;;;;;2.80;1.83;;;24.20;42.00;;;;;;5079085;28;20515;-51
2022/07/16 08:02:08;;;;;;;3.37;1.90;;;24.30;42.10;;;;;;5098055;28;20793;-50
2022/07/16 08:04:36;;;;;;;2.60;1.60;;;24.30;42.20;;;;;;5082262;28;20981;-47
2022/07/16 08:07:05;;;;;;;2.70;2.10;;;24.20;42.00;;;;;;5081996;28;20808;-49
2022/07/16 08:09:34;;;;;;;2.37;1.83;;;24.30;42.20;;;;;;5087530;28;20477;-47
2022/07/16 08:12:03;;;;;;;2.07;1.67;;;24.30;42.20;;;;;;5091675;28;20429;-49
2022/07/16 08:14:31;;;;;;;3.43;1.83;;;24.30;42.30;;;;;;5089405;28;20469;-52
2022/07/16 08:17:01;;;;;;;1.73;1.63;;;24.30;42.30;;;;;;5083251;28;20979;-48
2022/07/16 08:19:31;;;;;;;2.00;1.67;;;24.30;42.30;;;;;;5086657;28;20515;-46
2022/07/16 08:22:00;;;;;;;2.80;2.13;;;24.30;42.30;;;;;;5077012;28;20949;-48
2022/07/16 08:27:15;;;;;;;2.53;1.70;;;24.30;42.30;;;;;;5089865;28;20476;-49
2022/07/16 08:29:43;;;;;;;1.70;1.60;;;24.30;42.40;;;;;;5090946;28;20464;-51
2022/07/16 08:32:12;;;;;;;1.73;1.63;;;24.30;42.40;;;;;;5082725;28;20461;-54
2022/07/16 08:34:41;;;;;;;2.33;2.03;;;24.30;42.40;;;;;;5088875;28;20473;-47
2022/07/16 08:37:13;;;;;;;4.03;2.10;;;24.30;42.40;;;;;;5083936;28;20495;-48
2022/07/16 08:39:43;;;;;;;2.37;1.97;;;24.30;42.80;;;;;;5078814;28;20658;-50
2022/07/16 08:42:12;;;;;;;3.87;1.90;;;24.30;42.70;;;;;;5082397;28;20936;-48
2022/07/16 08:44:42;;;;;;;3.00;2.33;;;24.20;42.70;;;;;;5078280;28;20465;-49
2022/07/16 08:47:12;;;;;;;4.20;2.93;;;24.30;42.90;;;;;;5090018;28;20449;-47
2022/07/16 08:49:43;;;;;;;4.63;2.53;;;24.30;43.20;;;;;;5084949;28;20457;-46
2022/07/16 08:52:13;;;;;;;3.70;2.50;;;24.30;44.90;;;;;;5088376;28;20483;-48
2022/07/16 08:54:43;;;;;;;4.03;2.50;;;24.30;43.90;;;;;;5085777;28;20548;-50
2022/07/16 08:57:19;;;;;;;2.20;2.00;;;24.20;44.00;;;;;;5087523;28;20469;-47
2022/07/16 08:59:47;;;;;;;2.30;2.07;;;24.20;44.10;;;;;;5086045;28;20465;-47
2022/07/16 09:02:17;;;;;;;3.77;3.20;;;24.20;44.00;;;;;;5077452;28;20438;-47
2022/07/16 09:04:46;;;;;;;3.43;2.40;;;24.20;43.90;;;;;;5082711;28;20477;-47
2022/07/16 09:07:15;;;;;;;4.30;2.53;;;24.20;44.20;;;;;;5083248;28;20573;-48
2022/07/16 09:09:44;;;;;;;2.50;2.30;;;24.20;44.00;;;;;;5083238;28;20804;-46
2022/07/16 09:12:13;;;;;;;2.67;2.47;;;24.10;44.00;;;;;;5088471;28;20556;-48
2022/07/16 09:14:41;;;;;;;6.07;2.63;;;24.10;44.50;;;;;;5085500;27;21057;-46
2022/07/16 09:17:10;;;;;;;2.57;2.20;;;24.10;44.70;;;;;;5086958;28;20586;-48
2022/07/16 09:19:40;;;;;;;2.67;2.23;;;24.10;44.50;;;;;;5078003;28;20496;-49
2022/07/16 09:22:10;;;;;;;4.40;2.50;;;24.20;44.30;;;;;;5086251;28;20810;-45
2022/07/16 09:24:41;;;;;;;2.50;2.30;;;24.10;44.30;;;;;;5079054;28;20458;-49
2022/07/16 09:27:11;;;;;;;2.50;2.30;;;24.20;44.40;;;;;;5084653;28;20496;-50
2022/07/16 09:29:45;;;;;;;3.33;2.23;;;24.30;44.10;;;;;;5076906;28;20493;-47
2022/07/16 09:32:25;;;;;;;3.43;2.00;;;24.20;43.80;;;;;;5081861;28;20464;-48
2022/07/16 09:35:03;;;;;;;2.90;2.13;;;24.20;43.90;;;;;;5085587;28;20766;-47
2022/07/16 09:37:46;;;;;;;4.17;2.23;;;24.10;44.00;;;;;;5087973;28;20551;-48
2022/07/16 09:40:15;;;;;;;2.60;2.17;;;24.10;43.90;;;;;;5083895;28;20476;-49
2022/07/16 09:42:43;;;;;;;3.90;2.60;;;24.10;44.20;;;;;;5087529;28;20445;-48
2022/07/16 09:45:21;;;;;;;3.53;2.47;;;24.10;44.40;;;;;;5080327;28;20483;-47
2022/07/16 09:47:49;;;;;;;2.53;2.33;;;24.10;44.70;;;;;;5082760;28;20464;-48
2022/07/16 09:50:19;;;;;;;3.63;2.67;;;24.10;44.90;;;;;;5083018;28;20493;-46
2022/07/16 09:52:47;;;;;;;2.23;2.00;;;24.10;45.10;;;;;;5087912;28;20445;-47
2022/07/16 09:55:15;;;;;;;3.63;1.90;;;24.00;45.30;;;;;;5075502;28;20479;-47
2022/07/16 09:57:45;;;;;;;2.30;1.70;;;24.00;45.10;;;;;;5083008;28;20469;-47
2022/07/16 10:00:14;;;;;;;2.67;2.17;;;24.00;45.20;;;;;;5081656;28;20465;-47
2022/07/16 10:02:44;;;;;;;2.23;2.03;;;24.00;45.20;;;;;;5083732;28;20525;-47
2022/07/16 10:05:15;;;;;;;2.80;1.73;;;24.10;45.30;;;;;;5079656;28;21076;-47
2022/07/16 10:07:45;;;;;;;2.47;1.90;;;24.00;45.10;;;;;;5089394;28;20464;-47
2022/07/16 10:10:14;;;;;;;4.10;1.53;;;24.00;45.40;;;;;;5078500;28;20476;-48
2022/07/16 10:12:44;;;;;;;2.40;1.77;;;24.10;45.30;;;;;;5084738;28;20473;-44
2022/07/16 10:15:13;;;;;;;2.87;1.70;;;24.10;45.60;;;;;;5084445;28;20460;-46
2022/07/16 10:17:42;;;;;;;2.87;1.73;;;24.00;45.40;;;;;;5085692;28;20497;-47
2022/07/16 10:20:14;;;;;;;2.93;1.77;;;24.00;45.50;;;;;;5084595;28;20895;-47
2022/07/16 10:22:46;;;;;;;2.33;1.70;;;23.90;45.40;;;;;;5084608;28;20434;-46
2022/07/16 10:25:16;;;;;;;3.07;1.60;;;23.90;45.50;;;;;;5086973;28;20507;-47
2022/07/16 10:27:45;;;;;;;3.13;1.63;;;23.90;45.60;;;;;;5082256;28;20508;-50
2022/07/16 10:30:19;;;;;;;2.80;1.53;;;23.90;45.60;;;;;;5093489;28;20449;-48
2022/07/16 10:33:12;;;;;;;1.40;1.30;;;23.90;45.50;;;;;;5093843;28;20518;-46
2022/07/16 10:35:47;;;;;;;2.50;1.40;;;24.00;45.50;;;;;;5085405;28;20460;-48
2022/07/16 10:38:21;;;;;;;2.83;1.73;;;23.90;45.30;;;;;;5090614;28;20429;-48
2022/07/16 10:41:09;;;;;;;3.85;1.60;;;24.00;45.30;;;;;;5077075;28;20448;-47
2022/07/16 10:43:38;;;;;;;2.40;1.27;;;23.90;45.20;;;;;;5087912;28;20601;-48
2022/07/16 10:46:09;;;;;;;1.63;0.97;;;24.00;45.10;;;;;;5081207;28;20552;-49
2022/07/16 10:49:15;;;;;;;1.40;1.10;;;24.00;45.10;;;;;;5082312;28;20935;-49
2022/07/16 10:51:57;;;;;;;1.53;1.43;;;24.00;44.80;;;;;;5091893;28;20479;-48
2022/07/16 10:54:29;;;;;;;1.37;1.20;;;24.00;44.20;;;;;;5080216;28;20918;-48
2022/07/16 10:57:00;;;;;;;2.10;1.53;;;24.00;44.10;;;;;;5083902;28;20472;-47
2022/07/16 10:59:30;;;;;;;2.03;1.37;;;24.10;44.30;;;;;;5087920;28;20479;-48
2022/07/16 11:02:01;;;;;;;1.20;1.10;;;24.00;44.30;;;;;;5082411;28;20787;-48
2022/07/16 11:04:36;;;;;;;1.30;1.20;;;24.00;44.20;;;;;;5085962;28;20481;-48
2022/07/16 11:07:08;;;;;;;1.70;1.00;;;24.00;44.20;;;;;;5078253;28;20457;-50
2022/07/16 11:09:40;;;;;;;1.40;1.30;;;24.10;44.10;;;;;;5087370;28;20473;-47
2022/07/16 11:12:15;;;;;;;3.37;1.20;;;24.10;44.00;;;;;;5093437;28;20891;-47
2022/07/16 11:14:47;;;;;;;0.90;0.77;;;24.10;43.90;;;;;;5091353;28;20494;-49
2022/07/16 11:17:17;;;;;;;2.13;1.00;;;24.10;44.00;;;;;;5083055;28;20468;-47
2022/07/16 11:19:48;;;;;;;1.20;1.10;;;24.10;43.70;;;;;;5080287;28;20469;-49
2022/07/16 11:22:18;;;;;;;1.30;1.20;;;24.10;43.60;;;;;;5082165;28;20540;-47
2022/07/16 11:24:52;;;;;;;1.43;0.80;;;24.10;43.60;;;;;;5086685;28;20465;-48
2022/07/16 11:27:26;;;;;;;1.77;1.10;;;24.10;43.50;;;;;;5091354;28;20461;-48
2022/07/16 11:29:56;;;;;;;3.23;1.23;;;24.10;43.50;;;;;;5086165;28;20995;-53
2022/07/16 11:32:25;;;;;;;3.20;1.30;;;24.10;43.30;;;;;;5082423;28;20474;-48
2022/07/16 11:34:54;;;;;;;1.27;1.10;;;24.10;43.20;;;;;;5077044;28;20508;-46
2022/07/16 11:37:22;;;;;;;2.07;1.23;;;24.10;42.90;;;;;;5082459;28;20884;-48
2022/07/16 11:39:59;;;;;;;1.10;0.93;;;24.10;42.90;;;;;;5082250;28;20518;-47
2022/07/16 11:42:28;;;;;;;0.93;0.93;;;24.20;42.90;;;;;;5089226;28;20447;-50
2022/07/16 11:44:56;;;;;;;1.00;1.00;;;24.10;43.00;;;;;;5092022;28;20881;-49
2022/07/16 11:47:24;;;;;;;2.13;1.40;;;24.10;43.00;;;;;;5087743;28;20499;-47
2022/07/16 11:49:52;;;;;;;2.73;1.23;;;24.10;43.10;;;;;;5077451;28;21084;-49
2022/07/16 11:52:25;;;;;;;4.47;1.70;;;24.10;42.80;;;;;;5084679;28;20955;-48
2022/07/16 11:54:56;;;;;;;3.57;1.10;;;24.20;42.80;;;;;;5081798;28;20461;-48
2022/07/16 11:57:26;;;;;;;1.90;1.40;;;24.20;42.40;;;;;;5083100;28;20480;-48
2022/07/16 11:59:55;;;;;;;1.10;1.00;;;24.10;42.10;;;;;;5079832;28;20442;-49
2022/07/16 12:02:25;;;;;;;1.27;0.77;;;24.20;42.50;;;;;;5083027;28;20476;-47
2022/07/16 12:04:56;;;;;;;1.70;1.30;;;24.20;42.60;;;;;;5083010;28;20463;-47
2022/07/16 12:07:33;;;;;;;1.30;1.17;;;24.20;42.60;;;;;;5082910;28;20992;-48
2022/07/16 12:10:06;;;;;;;1.27;0.87;;;24.10;42.30;;;;;;5083095;28;20457;-48
2022/07/16 12:12:36;;;;;;;0.97;0.87;;;24.20;42.30;;;;;;5086059;28;20484;-46
2022/07/16 12:15:07;;;;;;;2.30;1.40;;;24.10;42.30;;;;;;5091584;28;20999;-48
2022/07/16 12:17:44;;;;;;;1.53;1.33;;;24.10;42.30;;;;;;5084180;28;20457;-48
2022/07/16 12:20:17;;;;;;;1.20;1.10;;;24.10;42.40;;;;;;5080341;28;21019;-48
2022/07/16 12:22:56;;;;;;;1.10;0.90;;;24.20;42.40;;;;;;5086260;28;20433;-47
2022/07/16 12:25:35;;;;;;;0.90;0.90;;;24.20;42.30;;;;;;5086062;28;20457;-47
2022/07/16 12:28:07;;;;;;;1.80;1.27;;;24.20;42.20;;;;;;5078486;28;20450;-48
2022/07/16 12:30:39;;;;;;;3.93;1.10;;;24.20;42.10;;;;;;5079052;28;20470;-47
2022/07/16 12:33:09;;;;;;;1.67;0.97;;;24.20;41.60;;;;;;5077857;28;20466;-48
2022/07/16 12:35:46;;;;;;;1.20;1.10;;;24.10;41.10;;;;;;5077740;28;20565;-47
2022/07/16 12:38:44;;;;;;;2.70;1.00;;;24.10;41.20;;;;;;5078954;28;20449;-49
2022/07/16 12:41:15;;;;;;;2.57;0.93;;;24.20;41.40;;;;;;5072471;28;20469;-48
2022/07/16 12:43:48;;;;;;;2.20;1.40;;;24.10;41.30;;;;;;5074534;28;20803;-47
2022/07/16 12:46:17;;;;;;;3.63;1.20;;;24.20;41.30;;;;;;5081326;28;20469;-48
2022/07/16 12:48:48;;;;;;;2.83;1.33;;;24.20;41.20;;;;;;5079386;28;20430;-48
2022/07/16 12:51:19;;;;;;;1.37;0.90;;;24.20;41.20;;;;;;5085978;28;20463;-49
2022/07/16 12:53:48;;;;;;;1.70;1.10;;;24.20;41.00;;;;;;5086042;28;20481;-47
2022/07/16 12:59:05;;;;;;;1.27;0.93;;;24.20;41.10;;;;;;5088880;28;20464;-49
2022/07/16 13:01:34;;;;;;;1.80;1.20;;;24.20;41.00;;;;;;5086280;28;20436;-48
2022/07/16 13:04:03;;;;;;;1.47;1.23;;;24.20;40.50;;;;;;5077361;28;20544;-47
2022/07/16 13:06:33;;;;;;;1.33;1.10;;;24.20;40.50;;;;;;5090716;28;20489;-48
2022/07/16 13:09:01;;;;;;;1.17;1.07;;;24.20;40.80;;;;;;5086348;28;20523;-47